createdAt,value
2024-04-15T00:01:26.180Z,16.86
2024-04-15T00:03:53.017Z,17.06
2024-04-15T00:06:19.717Z,16.77
2024-04-15T00:08:46.878Z,16.61
2024-04-15T00:11:13.998Z,16.62
2024-04-15T00:13:40.781Z,16.74
2024-04-15T00:16:10.880Z,16.69
2024-04-15T00:18:38.829Z,16.75
2024-04-15T00:21:11.140Z,16.98
2024-04-15T00:23:38.072Z,16.95
2024-04-15T00:26:04.985Z,16.86
2024-04-15T00:28:31.613Z,16.82
2024-04-15T00:30:58.390Z,16.92
2024-04-15T00:33:25.203Z,16.98
2024-04-15T00:35:52.261Z,16.86
2024-04-15T00:38:18.930Z,16.73
2024-04-15T00:40:45.636Z,16.66
2024-04-15T00:43:13.471Z,16.48
2024-04-15T00:45:40.602Z,16.40
2024-04-15T00:48:12.426Z,16.52
2024-04-15T00:50:41.734Z,16.62
2024-04-15T00:53:09.850Z,16.70
2024-04-15T00:55:38.516Z,16.70
2024-04-15T00:58:06.160Z,16.71
2024-04-15T01:00:32.911Z,16.64
2024-04-15T01:02:59.771Z,16.62
2024-04-15T01:05:26.932Z,16.70
2024-04-15T01:07:53.635Z,16.57
2024-04-15T01:10:20.498Z,16.60
2024-04-15T01:12:47.571Z,16.60
2024-04-15T01:15:14.192Z,16.61
2024-04-15T01:17:40.921Z,16.56
2024-04-15T01:20:07.830Z,16.51
2024-04-15T01:22:44.334Z,16.36
2024-04-15T01:25:11.329Z,16.24
2024-04-15T01:27:38.391Z,16.12
2024-04-15T01:30:05.534Z,16.07
2024-04-15T01:32:32.735Z,16.08
2024-04-15T01:34:59.462Z,16.03
2024-04-15T01:37:26.155Z,16.04
2024-04-15T01:39:52.874Z,15.97
2024-04-15T01:42:19.670Z,15.99
2024-04-15T01:44:46.323Z,15.86
2024-04-15T01:47:12.989Z,15.82
2024-04-15T01:49:39.605Z,15.87
2024-04-15T01:52:06.593Z,15.80
2024-04-15T01:54:33.264Z,15.61
2024-04-15T01:56:59.993Z,15.52
2024-04-15T01:59:26.667Z,15.62
2024-04-15T02:01:53.524Z,15.62
2024-04-15T02:04:20.243Z,15.73
2024-04-15T02:06:46.856Z,15.62
2024-04-15T02:09:13.651Z,15.56
2024-04-15T02:11:40.299Z,15.64
2024-04-15T02:14:07.089Z,15.65
2024-04-15T02:16:34.068Z,15.63
2024-04-15T02:19:01.099Z,15.49
2024-04-15T02:21:27.745Z,15.67
2024-04-15T02:23:54.359Z,15.75
2024-04-15T02:26:20.988Z,15.69
2024-04-15T02:28:47.666Z,15.59
2024-04-15T02:31:14.679Z,15.54
2024-04-15T02:33:41.396Z,15.47
2024-04-15T02:36:08.019Z,15.68
2024-04-15T02:38:34.760Z,15.62
2024-04-15T02:41:01.415Z,15.79
2024-04-15T02:43:28.058Z,15.74
2024-04-15T02:45:54.701Z,15.68
2024-04-15T02:48:21.347Z,15.73
2024-04-15T02:50:47.992Z,15.90
2024-04-15T02:53:14.672Z,15.96
2024-04-15T02:55:43.133Z,15.87
2024-04-15T02:58:09.849Z,15.99
2024-04-15T03:00:36.558Z,15.96
2024-04-15T03:03:03.404Z,15.90
2024-04-15T03:05:30.173Z,15.78
2024-04-15T03:07:56.772Z,15.80
2024-04-15T03:10:23.494Z,15.73
2024-04-15T03:12:52.517Z,15.69
2024-04-15T03:15:19.492Z,15.64
2024-04-15T03:17:49.175Z,15.73
2024-04-15T03:20:16.793Z,15.76
2024-04-15T03:22:51.224Z,15.75
2024-04-15T03:25:21.685Z,15.65
2024-04-15T03:27:52.037Z,15.87
2024-04-15T03:30:19.053Z,15.88
2024-04-15T03:32:45.736Z,15.94
2024-04-15T03:35:15.282Z,15.88
2024-04-15T03:37:43.126Z,15.91
2024-04-15T03:40:11.379Z,15.84
2024-04-15T03:42:38.155Z,15.57
2024-04-15T03:45:05.588Z,15.62
2024-04-15T03:47:32.478Z,15.56
2024-04-15T03:49:59.254Z,15.45
2024-04-15T03:52:25.910Z,15.47
2024-04-15T03:54:52.607Z,15.44
2024-04-15T03:57:19.540Z,15.49
2024-04-15T03:59:46.505Z,15.50
2024-04-15T04:02:13.323Z,15.57
2024-04-15T04:04:41.768Z,15.47
2024-04-15T04:07:08.755Z,15.47
2024-04-15T04:09:39.288Z,15.38
2024-04-15T04:12:06.153Z,15.22
2024-04-15T04:14:32.780Z,14.91
2024-04-15T04:16:59.625Z,15.00
2024-04-15T04:19:26.976Z,14.86
2024-04-15T04:21:53.802Z,14.75
2024-04-15T04:24:20.607Z,14.77
2024-04-15T04:26:47.281Z,14.95
2024-04-15T04:29:14.177Z,14.87
2024-04-15T04:31:41.266Z,14.99
2024-04-15T04:34:07.944Z,14.94
2024-04-15T04:36:34.740Z,14.76
2024-04-15T04:39:01.390Z,14.84
2024-04-15T04:41:29.741Z,14.56
2024-04-15T04:43:56.418Z,14.80
2024-04-15T04:46:23.267Z,14.76
2024-04-15T04:48:50.876Z,14.85
2024-04-15T04:51:17.821Z,14.65
2024-04-15T04:53:44.695Z,14.61
2024-04-15T04:56:12.893Z,14.63
2024-04-15T04:58:39.957Z,14.81
2024-04-15T05:01:10.378Z,14.67
2024-04-15T05:03:39.133Z,14.73
2024-04-15T05:06:09.131Z,14.80
2024-04-15T05:08:36.302Z,14.87
2024-04-15T05:11:03.543Z,14.95
2024-04-15T05:13:30.482Z,14.89
2024-04-15T05:16:08.439Z,14.95
2024-04-15T05:18:36.541Z,14.94
2024-04-15T05:21:11.035Z,15.04
2024-04-15T05:23:37.713Z,14.87
2024-04-15T05:26:04.583Z,14.69
2024-04-15T05:28:31.367Z,14.60
2024-04-15T05:30:58.587Z,14.37
2024-04-15T05:33:25.424Z,14.36
2024-04-15T05:35:52.305Z,14.42
2024-04-15T05:38:19.060Z,14.31
2024-04-15T05:40:45.813Z,14.60
2024-04-15T05:43:12.804Z,14.53
2024-04-15T05:45:40.314Z,14.70
2024-04-15T05:48:08.038Z,14.69
2024-04-15T05:50:34.793Z,14.78
2024-04-15T05:53:01.527Z,14.73
2024-04-15T05:55:28.216Z,14.54
2024-04-15T05:57:54.969Z,14.49
2024-04-15T06:00:22.040Z,14.62
2024-04-15T06:02:48.950Z,14.54
2024-04-15T06:05:15.842Z,14.59
2024-04-15T06:07:43.288Z,14.73
2024-04-15T06:10:11.025Z,14.93
2024-04-15T06:12:38.165Z,15.17
2024-04-15T06:15:05.210Z,15.14
2024-04-15T06:17:32.097Z,15.17
2024-04-15T06:19:58.899Z,14.99
2024-04-15T06:22:25.625Z,15.18
2024-04-15T06:24:52.548Z,15.11
2024-04-15T06:27:22.189Z,15.09
2024-04-15T06:29:51.600Z,15.07
2024-04-15T06:32:18.276Z,14.95
2024-04-15T06:34:44.912Z,14.97
2024-04-15T06:37:11.685Z,14.78
2024-04-15T06:39:38.874Z,14.76
2024-04-15T06:42:05.727Z,14.80
2024-04-15T06:44:34.748Z,14.67
2024-04-15T06:47:01.579Z,14.94
2024-04-15T06:49:28.808Z,14.94
2024-04-15T06:51:55.617Z,14.84
2024-04-15T06:54:22.560Z,14.82
2024-04-15T06:56:49.435Z,14.89
2024-04-15T06:59:16.325Z,14.99
2024-04-15T07:01:43.145Z,14.78
2024-04-15T07:04:11.483Z,14.97
2024-04-15T07:06:38.176Z,14.99
2024-04-15T07:09:04.901Z,15.14
2024-04-15T07:11:31.666Z,15.03
2024-04-15T07:13:58.352Z,15.01
2024-04-15T07:16:25.107Z,14.83
2024-04-15T07:18:51.860Z,14.90
2024-04-15T07:21:18.655Z,14.73
2024-04-15T07:23:47.083Z,14.71
2024-04-15T07:26:13.788Z,14.63
2024-04-15T07:28:40.592Z,14.71
2024-04-15T07:31:08.098Z,14.76
2024-04-15T07:33:34.958Z,14.89
2024-04-15T07:36:02.461Z,14.98
2024-04-15T07:38:29.478Z,14.83
2024-04-15T07:41:00.057Z,14.85
2024-04-15T07:43:28.097Z,15.12
2024-04-15T07:45:54.996Z,15.29
2024-04-15T07:48:21.923Z,15.40
2024-04-15T07:50:48.623Z,15.37
2024-04-15T07:53:15.360Z,15.50
2024-04-15T07:55:46.884Z,15.80
2024-04-15T07:58:13.828Z,16.12
2024-04-15T08:00:41.336Z,15.73
2024-04-15T08:03:08.129Z,15.77
2024-04-15T08:05:34.953Z,15.97
2024-04-15T08:08:01.625Z,16.04
2024-04-15T08:10:31.463Z,16.08
2024-04-15T08:12:58.250Z,16.13
2024-04-15T08:15:25.311Z,16.15
2024-04-15T08:17:52.335Z,16.84
2024-04-15T08:20:19.031Z,17.37
2024-04-15T08:22:48.663Z,16.66
2024-04-15T08:25:17.558Z,16.44
2024-04-15T08:27:44.346Z,16.51
2024-04-15T08:30:11.172Z,16.49
2024-04-15T08:32:41.771Z,16.56
2024-04-15T08:35:09.665Z,16.36
2024-04-15T08:37:36.401Z,16.59
2024-04-15T08:40:06.177Z,16.44
2024-04-15T08:43:05.556Z,16.47
2024-04-15T08:45:32.859Z,16.45
2024-04-15T08:47:59.712Z,16.59
2024-04-15T08:50:27.694Z,16.79
2024-04-15T08:52:56.728Z,16.63
2024-04-15T08:55:26.683Z,16.35
2024-04-15T08:57:53.948Z,15.89
2024-04-15T09:00:22.839Z,15.68
2024-04-15T09:02:51.648Z,15.79
2024-04-15T09:05:18.615Z,15.78
2024-04-15T09:07:45.593Z,15.76
2024-04-15T09:10:16.696Z,15.51
2024-04-15T09:12:44.495Z,15.49
2024-04-15T09:15:12.508Z,15.59
2024-04-15T09:17:39.827Z,15.60
2024-04-15T09:20:12.083Z,15.48
2024-04-15T09:22:39.012Z,15.74
2024-04-15T09:25:07.728Z,15.66
2024-04-15T09:27:34.525Z,15.63
2024-04-15T09:30:01.614Z,15.93
2024-04-15T09:32:28.891Z,15.83
2024-04-15T09:35:01.472Z,15.76
2024-04-15T09:37:29.028Z,15.70
2024-04-15T09:39:56.276Z,15.90
2024-04-15T09:42:23.092Z,16.17
2024-04-15T09:44:50.648Z,16.34
2024-04-15T09:47:18.851Z,16.27
2024-04-15T09:49:47.938Z,16.62
2024-04-15T09:52:32.477Z,16.51
2024-04-15T09:55:10.148Z,16.61
2024-04-15T09:57:41.200Z,16.35
2024-04-15T10:00:14.717Z,16.42
2024-04-15T10:03:04.584Z,16.42
2024-04-15T10:05:33.907Z,16.35
2024-04-15T10:08:00.627Z,16.48
2024-04-15T10:10:28.847Z,16.61
2024-04-15T10:12:57.490Z,16.50
2024-04-15T10:15:25.346Z,16.21
2024-04-15T10:18:01.557Z,16.45
2024-04-15T10:20:33.905Z,16.33
2024-04-15T10:23:06.279Z,16.45
2024-04-15T10:25:39.140Z,16.66
2024-04-15T10:28:06.854Z,16.92
2024-04-15T10:30:34.635Z,16.69
2024-04-15T10:33:07.672Z,16.91
2024-04-15T10:35:36.587Z,16.94
2024-04-15T10:38:08.405Z,16.90
2024-04-15T10:40:46.286Z,17.03
2024-04-15T10:43:15.225Z,16.64
2024-04-15T10:45:42.238Z,16.59
2024-04-15T10:48:10.611Z,16.68
2024-04-15T10:50:37.450Z,16.99
2024-04-15T10:53:07.083Z,17.25
2024-04-15T10:55:33.954Z,17.40
2024-04-15T10:58:00.759Z,17.29
2024-04-15T11:00:27.708Z,16.88
2024-04-15T11:02:57.025Z,16.86
2024-04-15T11:05:28.735Z,17.22
2024-04-15T11:07:55.400Z,17.40
2024-04-15T11:10:22.371Z,17.42
2024-04-15T11:12:53.785Z,17.53
2024-04-15T11:15:22.246Z,17.71
2024-04-15T11:17:54.011Z,17.59
2024-04-15T11:20:22.318Z,17.58
2024-04-15T11:22:52.998Z,17.74
2024-04-15T11:25:20.504Z,17.72
2024-04-15T11:27:54.275Z,17.49
2024-04-15T11:30:28.382Z,17.68
2024-04-15T11:33:02.965Z,17.88
2024-04-15T11:35:29.981Z,17.64
2024-04-15T11:38:04.667Z,17.44
2024-04-15T11:40:32.570Z,17.60
2024-04-15T11:42:59.775Z,17.45
2024-04-15T11:45:26.956Z,17.80
2024-04-15T11:47:54.481Z,18.03
2024-04-15T11:50:21.683Z,18.46
2024-04-15T11:52:48.966Z,17.80
2024-04-15T11:55:21.473Z,17.96
2024-04-15T11:57:50.158Z,17.71
2024-04-15T12:00:17.308Z,17.74
2024-04-15T12:02:45.477Z,17.89
2024-04-15T12:05:14.227Z,18.10
2024-04-15T12:07:43.017Z,17.93
2024-04-15T12:10:11.849Z,18.13
2024-04-15T12:12:39.497Z,18.27
2024-04-15T12:15:09.344Z,18.23
2024-04-15T12:17:39.643Z,18.44
2024-04-15T12:20:08.873Z,18.49
2024-04-15T12:22:36.113Z,18.61
2024-04-15T12:25:11.365Z,18.68
2024-04-15T12:27:39.899Z,18.42
2024-04-15T12:30:11.445Z,18.45
2024-04-15T12:32:44.634Z,18.36
2024-04-15T12:35:18.232Z,18.14
2024-04-15T12:37:45.332Z,18.23
2024-04-15T12:40:14.566Z,18.30
2024-04-15T12:42:41.493Z,18.35
2024-04-15T12:45:10.927Z,18.60
2024-04-15T12:47:38.377Z,18.78
2024-04-15T12:50:06.332Z,18.55
2024-04-15T12:52:34.079Z,18.70
2024-04-15T12:55:01.167Z,18.85
2024-04-15T12:57:31.286Z,18.89
2024-04-15T12:59:58.255Z,19.07
2024-04-15T13:02:25.281Z,19.13
2024-04-15T13:04:52.277Z,19.41
2024-04-15T13:07:27.455Z,19.47
2024-04-15T13:09:55.162Z,19.42
2024-04-15T13:15:18.931Z,18.86
2024-04-15T13:17:53.105Z,19.13
2024-04-15T13:20:26.109Z,19.40
2024-04-15T13:22:57.620Z,19.11
2024-04-15T13:25:24.838Z,18.98
2024-04-15T13:27:52.593Z,18.99
2024-04-15T13:30:22.092Z,19.28
2024-04-15T13:32:49.470Z,19.38
2024-04-15T13:35:22.456Z,19.39
2024-04-15T13:38:06.091Z,19.53
2024-04-15T13:40:33.283Z,19.62
2024-04-15T13:43:00.168Z,19.38
2024-04-15T13:45:26.910Z,19.35
2024-04-15T13:48:01.649Z,19.43
2024-04-15T13:50:30.624Z,19.54
2024-04-15T13:52:57.279Z,19.25
2024-04-15T13:55:24.288Z,19.18
2024-04-15T13:57:51.386Z,18.76
2024-04-15T14:00:18.243Z,18.71
2024-04-15T14:02:45.282Z,19.12
2024-04-15T14:05:12.420Z,19.39
2024-04-15T14:07:44.194Z,19.27
2024-04-15T14:10:11.977Z,18.92
2024-04-15T14:12:40.259Z,18.99
2024-04-15T14:15:07.358Z,18.75
2024-04-15T14:17:34.282Z,18.80
2024-04-15T14:20:01.250Z,19.36
2024-04-15T14:22:28.170Z,19.23
2024-04-15T14:24:54.862Z,18.73
2024-04-15T14:27:21.718Z,18.43
2024-04-15T14:29:48.418Z,18.36
2024-04-15T14:32:15.079Z,18.34
2024-04-15T14:34:45.593Z,18.19
2024-04-15T14:37:13.126Z,18.15
2024-04-15T14:39:39.767Z,17.89
2024-04-15T14:42:07.245Z,17.88
2024-04-15T14:44:33.878Z,17.73
2024-04-15T14:47:00.655Z,17.81
2024-04-15T14:49:28.890Z,18.33
2024-04-15T14:51:56.189Z,18.36
2024-04-15T14:54:22.952Z,18.31
2024-04-15T14:56:49.690Z,18.35
2024-04-15T14:59:16.420Z,18.30
2024-04-15T15:01:43.252Z,18.29
2024-04-15T15:04:10.288Z,18.38
2024-04-15T15:06:37.424Z,18.54
2024-04-15T15:09:04.542Z,18.14
2024-04-15T15:11:31.292Z,17.92
2024-04-15T15:13:58.329Z,17.94
2024-04-15T15:16:25.196Z,18.02
2024-04-15T15:18:52.210Z,18.00
2024-04-15T15:21:24.130Z,17.80
2024-04-15T15:23:55.278Z,17.76
2024-04-15T15:26:22.167Z,17.82
2024-04-15T15:28:48.948Z,18.00
2024-04-15T15:31:15.750Z,17.77
2024-04-15T15:33:45.314Z,17.75
2024-04-15T15:36:12.137Z,17.85
2024-04-15T15:38:39.161Z,17.77
2024-04-15T15:41:05.909Z,17.44
2024-04-15T15:43:41.918Z,17.40
2024-04-15T15:46:11.229Z,17.22
2024-04-15T15:48:38.375Z,17.10
2024-04-15T15:51:05.467Z,17.06
2024-04-15T15:53:32.255Z,17.06
2024-04-15T15:55:58.940Z,16.84
2024-04-15T15:58:25.744Z,17.01
2024-04-15T16:00:52.534Z,17.03
2024-04-15T16:03:21.694Z,17.21
2024-04-15T16:05:51.375Z,17.36
2024-04-15T16:08:20.798Z,17.19
2024-04-15T16:10:47.690Z,17.07
2024-04-15T16:13:15.289Z,17.05
2024-04-15T16:15:42.200Z,17.02
2024-04-15T16:18:09.218Z,17.30
2024-04-15T16:20:36.395Z,17.01
2024-04-15T16:23:03.211Z,16.91
2024-04-15T16:25:29.971Z,16.62
2024-04-15T16:27:56.730Z,16.50
2024-04-15T16:30:23.544Z,16.43
2024-04-15T16:32:50.487Z,16.35
2024-04-15T16:35:20.089Z,16.40
2024-04-15T16:37:47.002Z,16.23
2024-04-15T16:40:13.823Z,16.19
2024-04-15T16:42:40.617Z,15.89
2024-04-15T16:45:07.974Z,15.39
2024-04-15T16:47:34.907Z,15.36
2024-04-15T16:50:01.771Z,15.11
2024-04-15T16:52:28.720Z,14.62
2024-04-15T16:54:55.488Z,13.92
2024-04-15T16:57:22.222Z,13.76
2024-04-15T16:59:49.045Z,13.56
2024-04-15T17:02:17.455Z,13.40
2024-04-15T17:04:44.445Z,13.29
2024-04-15T17:07:11.522Z,13.41
2024-04-15T17:09:38.295Z,13.42
2024-04-15T17:12:05.508Z,13.39
2024-04-15T17:14:32.277Z,13.07
2024-04-15T17:16:59.610Z,11.71
2024-04-15T17:19:26.292Z,12.08
2024-04-15T17:22:18.266Z,13.50
2024-04-15T17:25:01.945Z,14.14
2024-04-15T17:28:47.302Z,13.98
2024-04-15T17:31:17.468Z,15.72
2024-04-15T17:33:50.731Z,15.11
2024-04-15T17:36:50.007Z,15.79
2024-04-15T17:39:18.962Z,15.61
2024-04-15T17:41:45.685Z,16.34
2024-04-15T17:44:14.584Z,17.13
2024-04-15T17:46:43.226Z,17.22
2024-04-15T17:49:09.961Z,17.32
2024-04-15T17:51:37.014Z,18.19
2024-04-15T17:54:04.077Z,-143.96
2024-04-15T17:56:33.157Z,-143.96
2024-04-15T17:58:59.987Z,-143.96
2024-04-15T18:01:26.819Z,-143.96
2024-04-15T18:03:53.647Z,-143.96
2024-04-15T18:06:20.602Z,-143.96
2024-04-15T18:11:32.734Z,9.15
2024-04-15T18:14:02.656Z,9.19
2024-04-15T18:16:29.638Z,9.28
2024-04-15T18:18:56.973Z,9.30
2024-04-15T18:21:23.672Z,9.45
2024-04-15T18:23:53.008Z,9.05
2024-04-15T18:26:19.784Z,9.16
2024-04-15T18:28:46.413Z,8.98
2024-04-15T18:31:13.169Z,9.13
2024-04-15T18:33:39.987Z,8.99
2024-04-15T18:36:08.415Z,8.82
2024-04-15T18:38:35.203Z,8.98
2024-04-15T18:41:01.938Z,8.74
2024-04-15T18:43:28.818Z,8.84
2024-04-15T18:45:55.591Z,8.90
2024-04-15T18:48:22.553Z,9.13
2024-04-15T18:50:49.443Z,8.81
2024-04-15T18:53:16.224Z,8.78
2024-04-15T18:55:43.269Z,8.58
2024-04-15T18:58:12.469Z,8.65
2024-04-15T19:00:39.806Z,8.81
2024-04-15T19:03:16.337Z,8.83
2024-04-15T19:05:46.263Z,8.75
2024-04-15T19:08:16.200Z,8.67
2024-04-15T19:10:44.004Z,8.78
2024-04-15T19:13:11.038Z,8.85
2024-04-15T19:15:37.934Z,8.64
2024-04-15T19:18:05.477Z,8.93
2024-04-15T19:20:35.919Z,9.02
2024-04-15T19:23:03.888Z,8.78
2024-04-15T19:25:32.563Z,8.65
2024-04-15T19:27:59.528Z,8.78
2024-04-15T19:30:26.398Z,8.65
2024-04-15T19:32:53.648Z,8.68
2024-04-15T19:35:20.550Z,8.54
2024-04-15T19:37:48.830Z,8.69
2024-04-15T19:40:15.633Z,8.59
2024-04-15T19:42:44.871Z,8.66
2024-04-15T19:45:11.963Z,8.52
2024-04-15T19:47:39.333Z,8.56
2024-04-15T19:50:06.762Z,8.65
2024-04-15T19:52:33.964Z,8.37
2024-04-15T19:55:04.186Z,8.54
2024-04-15T19:57:31.326Z,8.83
2024-04-15T19:59:57.969Z,8.73
2024-04-15T20:02:24.668Z,8.47
2024-04-15T20:04:51.521Z,8.46
2024-04-15T20:07:18.573Z,8.58
2024-04-15T20:09:45.277Z,8.47
2024-04-15T20:12:11.931Z,8.31
2024-04-15T20:14:38.682Z,8.57
2024-04-15T20:17:21.438Z,8.29
2024-04-15T20:19:50.999Z,8.05
2024-04-15T20:22:17.811Z,8.02
2024-04-15T20:24:44.477Z,8.24
2024-04-15T20:27:11.496Z,8.20
2024-04-15T20:29:38.157Z,8.28
2024-04-15T20:32:05.061Z,8.47
2024-04-15T20:34:31.842Z,8.50
2024-04-15T20:36:59.503Z,8.57
2024-04-15T20:39:26.186Z,8.42
2024-04-15T20:41:52.794Z,8.25
2024-04-15T20:44:19.415Z,8.14
2024-04-15T20:46:46.106Z,7.80
2024-04-15T20:49:12.897Z,7.83
2024-04-15T20:51:39.548Z,7.78
2024-04-15T20:54:06.282Z,7.88
2024-04-15T20:56:33.364Z,7.92
2024-04-15T20:58:59.965Z,7.83
2024-04-15T21:01:27.088Z,7.85
2024-04-15T21:03:53.969Z,8.00
2024-04-15T21:06:23.284Z,7.90
2024-04-15T21:08:53.131Z,7.79
2024-04-15T21:11:21.399Z,7.76
2024-04-15T21:13:48.425Z,7.75
2024-04-15T21:16:15.906Z,7.85
2024-04-15T21:18:42.628Z,7.90
2024-04-15T21:21:09.299Z,7.98
2024-04-15T21:23:35.956Z,7.79
2024-04-15T21:26:04.979Z,7.91
2024-04-15T21:28:31.781Z,7.95
2024-04-15T21:30:59.326Z,7.81
2024-04-15T21:33:26.047Z,7.66
2024-04-15T21:35:52.722Z,7.70
2024-04-15T21:38:19.405Z,7.76
2024-04-15T21:40:46.060Z,7.70
2024-04-15T21:43:12.826Z,7.83
2024-04-15T21:45:39.650Z,7.61
2024-04-15T21:48:06.546Z,7.76
2024-04-15T21:50:33.243Z,7.83
2024-04-15T21:52:59.912Z,8.07
2024-04-15T21:55:26.549Z,7.92
2024-04-15T21:57:53.166Z,7.78
2024-04-15T22:00:19.949Z,7.87
2024-04-15T22:02:46.616Z,7.85
2024-04-15T22:05:13.551Z,7.82
2024-04-15T22:07:40.339Z,7.75
2024-04-15T22:10:07.271Z,7.93
2024-04-15T22:12:33.950Z,7.84
2024-04-15T22:15:00.607Z,8.11
2024-04-15T22:17:33.184Z,8.10
2024-04-15T22:19:59.983Z,8.06
2024-04-15T22:22:26.677Z,8.10
2024-04-15T22:24:53.512Z,8.10
2024-04-15T22:27:20.294Z,8.18
2024-04-15T22:29:47.032Z,8.28
2024-04-15T22:32:13.639Z,8.14
2024-04-15T22:34:40.460Z,8.20
2024-04-15T22:37:07.320Z,8.28
2024-04-15T22:39:34.448Z,8.16
2024-04-15T22:42:01.171Z,8.30
2024-04-15T22:44:27.842Z,8.57
2024-04-15T22:46:54.514Z,8.54
2024-04-15T22:49:21.226Z,8.45
2024-04-15T22:51:47.851Z,8.70
2024-04-15T22:54:14.461Z,8.41
2024-04-15T22:56:45.305Z,8.29
2024-04-15T22:59:12.086Z,8.48
2024-04-15T23:01:38.786Z,8.36
2024-04-15T23:04:05.683Z,8.27
2024-04-15T23:06:32.418Z,8.28
2024-04-15T23:08:59.249Z,8.16
2024-04-15T23:11:25.987Z,8.38
2024-04-15T23:13:52.681Z,8.41
2024-04-15T23:16:19.484Z,8.45
2024-04-15T23:18:47.666Z,8.41
2024-04-15T23:21:14.394Z,8.08
2024-04-15T23:23:41.003Z,8.17
2024-04-15T23:26:08.197Z,8.10
2024-04-15T23:28:34.929Z,8.05
2024-04-15T23:31:03.354Z,8.04
2024-04-15T23:33:31.167Z,8.16
2024-04-15T23:35:57.964Z,8.16
2024-04-15T23:38:24.644Z,8.25
2024-04-15T23:40:51.558Z,8.27
2024-04-15T23:43:18.213Z,8.30
2024-04-15T23:46:03.561Z,8.25
2024-04-15T23:48:49.231Z,8.26
2024-04-15T23:51:34.652Z,8.30
2024-04-15T23:54:20.725Z,8.25
2024-04-15T23:57:06.209Z,8.34
2024-04-15T23:59:32.876Z,8.23
